sensor_id;sensor_type;location;lat;lon;timestamp;temperature;humidity
20366;DHT22;10341;49.894;8.822;2023-06-22T00:02:04;21.00;99.90
20366;DHT22;10341;49.894;8.822;2023-06-22T00:07:23;21.30;99.90
20366;DHT22;10341;49.894;8.822;2023-06-22T00:12:42;21.30;99.90
20366;DHT22;10341;49.894;8.822;2023-06-22T00:18:02;21.20;99.90
20366;DHT22;10341;49.894;8.822;2023-06-22T00:23:21;21.10;99.90
20366;DHT22;10341;49.894;8.822;2023-06-22T00:28:43;21.00;99.90
20366;DHT22;10341;49.894;8.822;2023-06-22T00:34:02;20.90;99.90
20366;DHT22;10341;49.894;8.822;2023-06-22T00:39:21;20.80;99.90
20366;DHT22;10341;49.894;8.822;2023-06-22T00:44:40;20.70;99.90
20366;DHT22;10341;49.894;8.822;2023-06-22T00:49:59;20.70;99.90
20366;DHT22;10341;49.894;8.822;2023-06-22T00:55:21;20.60;99.90
20366;DHT22;10341;49.894;8.822;2023-06-22T01:00:41;20.60;99.90
20366;DHT22;10341;49.894;8.822;2023-06-22T01:06:15;20.60;99.90
20366;DHT22;10341;49.894;8.822;2023-06-22T01:11:42;20.60;99.90
20366;DHT22;10341;49.894;8.822;2023-06-22T01:17:08;20.70;99.90
20366;DHT22;10341;49.894;8.822;2023-06-22T01:22:31;20.80;99.90
20366;DHT22;10341;49.894;8.822;2023-06-22T01:33:38;21.00;99.90
20366;DHT22;10341;49.894;8.822;2023-06-22T01:38:59;21.00;99.90
20366;DHT22;10341;49.894;8.822;2023-06-22T01:44:19;21.00;99.90
20366;DHT22;10341;49.894;8.822;2023-06-22T01:49:38;20.90;99.90
20366;DHT22;10341;49.894;8.822;2023-06-22T01:54:58;20.90;99.90
20366;DHT22;10341;49.894;8.822;2023-06-22T02:00:20;20.90;99.90
20366;DHT22;10341;49.894;8.822;2023-06-22T02:06:03;20.80;99.90
20366;DHT22;10341;49.894;8.822;2023-06-22T02:11:24;20.70;99.90
20366;DHT22;10341;49.894;8.822;2023-06-22T02:16:45;20.60;99.90
20366;DHT22;10341;49.894;8.822;2023-06-22T02:22:05;20.50;99.90
20366;DHT22;10341;49.894;8.822;2023-06-22T02:27:24;20.50;99.90
20366;DHT22;10341;49.894;8.822;2023-06-22T02:32:43;20.40;99.90
20366;DHT22;10341;49.894;8.822;2023-06-22T02:38:04;20.30;99.90
20366;DHT22;10341;49.894;8.822;2023-06-22T02:43:23;20.30;99.90
20366;DHT22;10341;49.894;8.822;2023-06-22T02:48:42;20.20;99.90
20366;DHT22;10341;49.894;8.822;2023-06-22T02:54:01;20.10;99.90
20366;DHT22;10341;49.894;8.822;2023-06-22T02:59:22;20.00;99.90
20366;DHT22;10341;49.894;8.822;2023-06-22T03:04:45;19.90;99.90
20366;DHT22;10341;49.894;8.822;2023-06-22T03:10:09;19.80;99.90
20366;DHT22;10341;49.894;8.822;2023-06-22T03:15:29;19.70;99.90
20366;DHT22;10341;49.894;8.822;2023-06-22T03:20:48;19.60;99.90
20366;DHT22;10341;49.894;8.822;2023-06-22T03:26:09;19.50;99.90
20366;DHT22;10341;49.894;8.822;2023-06-22T03:31:29;19.50;99.90
20366;DHT22;10341;49.894;8.822;2023-06-22T03:36:48;19.40;99.90
20366;DHT22;10341;49.894;8.822;2023-06-22T03:42:08;19.40;99.90
20366;DHT22;10341;49.894;8.822;2023-06-22T03:47:27;19.40;99.90
20366;DHT22;10341;49.894;8.822;2023-06-22T03:52:47;19.50;99.90
20366;DHT22;10341;49.894;8.822;2023-06-22T03:58:06;19.60;99.90
20366;DHT22;10341;49.894;8.822;2023-06-22T04:03:26;19.70;99.90
20366;DHT22;10341;49.894;8.822;2023-06-22T04:08:45;19.70;99.90
20366;DHT22;10341;49.894;8.822;2023-06-22T04:14:09;19.80;99.90
20366;DHT22;10341;49.894;8.822;2023-06-22T04:19:28;19.90;99.90
20366;DHT22;10341;49.894;8.822;2023-06-22T04:24:48;20.10;99.90
20366;DHT22;10341;49.894;8.822;2023-06-22T04:30:08;20.20;99.90
20366;DHT22;10341;49.894;8.822;2023-06-22T04:35:27;20.30;99.90
20366;DHT22;10341;49.894;8.822;2023-06-22T04:40:47;20.40;99.90
20366;DHT22;10341;49.894;8.822;2023-06-22T04:46:06;20.50;99.90
20366;DHT22;10341;49.894;8.822;2023-06-22T04:51:25;20.50;99.90
20366;DHT22;10341;49.894;8.822;2023-06-22T04:56:49;20.50;99.90
20366;DHT22;10341;49.894;8.822;2023-06-22T05:02:15;20.60;99.90
20366;DHT22;10341;49.894;8.822;2023-06-22T05:07:35;20.60;99.90
20366;DHT22;10341;49.894;8.822;2023-06-22T05:12:54;20.70;99.90
20366;DHT22;10341;49.894;8.822;2023-06-22T05:18:14;20.90;99.90
20366;DHT22;10341;49.894;8.822;2023-06-22T05:23:33;21.00;99.90
20366;DHT22;10341;49.894;8.822;2023-06-22T05:28:52;21.20;99.90
20366;DHT22;10341;49.894;8.822;2023-06-22T05:34:12;21.30;99.90
20366;DHT22;10341;49.894;8.822;2023-06-22T05:39:31;21.50;99.90
20366;DHT22;10341;49.894;8.822;2023-06-22T05:44:52;21.70;99.90
20366;DHT22;10341;49.894;8.822;2023-06-22T05:50:12;21.90;99.90
20366;DHT22;10341;49.894;8.822;2023-06-22T05:55:31;22.10;99.90
20366;DHT22;10341;49.894;8.822;2023-06-22T06:00:51;22.30;99.90
20366;DHT22;10341;49.894;8.822;2023-06-22T06:06:11;22.50;99.90
20366;DHT22;10341;49.894;8.822;2023-06-22T06:11:31;22.70;99.90
20366;DHT22;10341;49.894;8.822;2023-06-22T06:16:50;22.80;99.90
20366;DHT22;10341;49.894;8.822;2023-06-22T06:22:10;23.00;99.90
20366;DHT22;10341;49.894;8.822;2023-06-22T06:27:29;23.20;99.90
20366;DHT22;10341;49.894;8.822;2023-06-22T06:32:49;23.40;99.90
20366;DHT22;10341;49.894;8.822;2023-06-22T06:38:09;23.60;99.90
20366;DHT22;10341;49.894;8.822;2023-06-22T06:43:29;23.80;99.90
20366;DHT22;10341;49.894;8.822;2023-06-22T06:48:48;24.00;99.90
20366;DHT22;10341;49.894;8.822;2023-06-22T06:54:08;24.10;99.90
20366;DHT22;10341;49.894;8.822;2023-06-22T06:59:27;24.40;99.90
20366;DHT22;10341;49.894;8.822;2023-06-22T07:04:47;24.70;99.90
20366;DHT22;10341;49.894;8.822;2023-06-22T07:10:07;24.90;99.90
20366;DHT22;10341;49.894;8.822;2023-06-22T07:15:27;25.10;99.90
20366;DHT22;10341;49.894;8.822;2023-06-22T07:20:46;25.60;99.90
20366;DHT22;10341;49.894;8.822;2023-06-22T07:26:06;26.00;99.90
20366;DHT22;10341;49.894;8.822;2023-06-22T07:31:27;26.50;99.90
20366;DHT22;10341;49.894;8.822;2023-06-22T07:36:46;26.50;99.90
20366;DHT22;10341;49.894;8.822;2023-06-22T07:42:05;26.70;99.90
20366;DHT22;10341;49.894;8.822;2023-06-22T07:47:24;26.50;99.90
20366;DHT22;10341;49.894;8.822;2023-06-22T07:52:47;26.50;99.90
20366;DHT22;10341;49.894;8.822;2023-06-22T07:58:07;26.70;99.90
20366;DHT22;10341;49.894;8.822;2023-06-22T08:03:26;27.20;99.90
20366;DHT22;10341;49.894;8.822;2023-06-22T08:08:45;27.90;99.90
20366;DHT22;10341;49.894;8.822;2023-06-22T08:14:07;29.40;99.90
20366;DHT22;10341;49.894;8.822;2023-06-22T08:19:26;31.60;99.90
20366;DHT22;10341;49.894;8.822;2023-06-22T08:24:45;32.90;99.90
20366;DHT22;10341;49.894;8.822;2023-06-22T08:30:07;34.30;98.90
20366;DHT22;10341;49.894;8.822;2023-06-22T08:35:26;35.30;96.50
20366;DHT22;10341;49.894;8.822;2023-06-22T08:40:46;34.70;97.40
20366;DHT22;10341;49.894;8.822;2023-06-22T08:46:05;35.10;96.90
20366;DHT22;10341;49.894;8.822;2023-06-22T08:51:25;35.50;95.30
20366;DHT22;10341;49.894;8.822;2023-06-22T08:56:44;36.20;94.50
20366;DHT22;10341;49.894;8.822;2023-06-22T09:02:03;35.70;94.00
20366;DHT22;10341;49.894;8.822;2023-06-22T09:07:22;34.90;93.60
20366;DHT22;10341;49.894;8.822;2023-06-22T09:12:42;34.70;93.40
20366;DHT22;10341;49.894;8.822;2023-06-22T09:18:02;35.10;93.30
20366;DHT22;10341;49.894;8.822;2023-06-22T09:23:22;35.90;93.90
20366;DHT22;10341;49.894;8.822;2023-06-22T09:28:41;34.50;92.20
20366;DHT22;10341;49.894;8.822;2023-06-22T09:34:00;35.30;92.80
20366;DHT22;10341;49.894;8.822;2023-06-22T09:39:20;35.10;91.10
20366;DHT22;10341;49.894;8.822;2023-06-22T09:44:39;35.30;91.50
20366;DHT22;10341;49.894;8.822;2023-06-22T09:49:58;35.50;91.00
20366;DHT22;10341;49.894;8.822;2023-06-22T09:55:19;35.10;90.80
20366;DHT22;10341;49.894;8.822;2023-06-22T10:00:38;35.10;91.70
20366;DHT22;10341;49.894;8.822;2023-06-22T10:05:57;35.60;89.70
20366;DHT22;10341;49.894;8.822;2023-06-22T10:11:17;36.30;90.40
20366;DHT22;10341;49.894;8.822;2023-06-22T10:16:36;37.30;88.70
20366;DHT22;10341;49.894;8.822;2023-06-22T10:21:55;36.00;88.40
20366;DHT22;10341;49.894;8.822;2023-06-22T10:27:15;36.00;88.80
20366;DHT22;10341;49.894;8.822;2023-06-22T10:32:34;35.60;90.30
20366;DHT22;10341;49.894;8.822;2023-06-22T10:37:54;38.00;85.70
20366;DHT22;10341;49.894;8.822;2023-06-22T10:43:13;39.50;80.80
20366;DHT22;10341;49.894;8.822;2023-06-22T10:48:33;40.50;78.00
20366;DHT22;10341;49.894;8.822;2023-06-22T10:53:52;37.10;82.40
20366;DHT22;10341;49.894;8.822;2023-06-22T10:59:11;37.50;82.80
20366;DHT22;10341;49.894;8.822;2023-06-22T11:04:30;37.40;82.40
20366;DHT22;10341;49.894;8.822;2023-06-22T11:09:49;39.10;79.00
20366;DHT22;10341;49.894;8.822;2023-06-22T11:15:09;37.10;82.10
20366;DHT22;10341;49.894;8.822;2023-06-22T11:20:28;36.80;82.80
20366;DHT22;10341;49.894;8.822;2023-06-22T11:25:47;36.30;86.00
20366;DHT22;10341;49.894;8.822;2023-06-22T11:31:06;37.00;85.30
20366;DHT22;10341;49.894;8.822;2023-06-22T11:36:26;38.40;81.00
20366;DHT22;10341;49.894;8.822;2023-06-22T11:41:45;37.30;83.40
20366;DHT22;10341;49.894;8.822;2023-06-22T11:47:05;37.00;82.40
20366;DHT22;10341;49.894;8.822;2023-06-22T11:52:25;35.70;85.00
20366;DHT22;10341;49.894;8.822;2023-06-22T11:57:57;35.30;86.10
20366;DHT22;10341;49.894;8.822;2023-06-22T12:03:22;34.90;87.10
20366;DHT22;10341;49.894;8.822;2023-06-22T12:08:42;34.60;87.90
20366;DHT22;10341;49.894;8.822;2023-06-22T12:14:01;35.30;89.50
20366;DHT22;10341;49.894;8.822;2023-06-22T12:19:21;35.20;87.60
20366;DHT22;10341;49.894;8.822;2023-06-22T12:24:41;34.80;88.60
20366;DHT22;10341;49.894;8.822;2023-06-22T12:30:00;34.40;90.10
20366;DHT22;10341;49.894;8.822;2023-06-22T12:35:19;34.30;90.70
20366;DHT22;10341;49.894;8.822;2023-06-22T12:40:38;34.10;90.50
20366;DHT22;10341;49.894;8.822;2023-06-22T12:45:57;34.00;90.60
20366;DHT22;10341;49.894;8.822;2023-06-22T12:51:21;33.30;91.90
20366;DHT22;10341;49.894;8.822;2023-06-22T12:56:41;33.30;91.70
20366;DHT22;10341;49.894;8.822;2023-06-22T13:02:02;33.00;92.10
20366;DHT22;10341;49.894;8.822;2023-06-22T13:07:22;32.70;92.30
20366;DHT22;10341;49.894;8.822;2023-06-22T13:12:41;33.30;92.90
20366;DHT22;10341;49.894;8.822;2023-06-22T13:18:00;34.70;91.90
20366;DHT22;10341;49.894;8.822;2023-06-22T13:23:20;35.00;90.40
20366;DHT22;10341;49.894;8.822;2023-06-22T13:28:40;34.10;90.50
20366;DHT22;10341;49.894;8.822;2023-06-22T13:33:59;34.50;91.00
20366;DHT22;10341;49.894;8.822;2023-06-22T13:39:18;34.30;90.40
20366;DHT22;10341;49.894;8.822;2023-06-22T13:44:38;34.70;90.70
20366;DHT22;10341;49.894;8.822;2023-06-22T13:49:58;34.40;90.50
20366;DHT22;10341;49.894;8.822;2023-06-22T13:55:17;34.70;90.20
20366;DHT22;10341;49.894;8.822;2023-06-22T14:00:38;34.70;86.20
20366;DHT22;10341;49.894;8.822;2023-06-22T14:05:58;34.70;87.10
20366;DHT22;10341;49.894;8.822;2023-06-22T14:11:17;34.80;85.90
20366;DHT22;10341;49.894;8.822;2023-06-22T14:16:37;34.90;85.20
20366;DHT22;10341;49.894;8.822;2023-06-22T14:21:56;34.50;83.50
20366;DHT22;10341;49.894;8.822;2023-06-22T14:27:18;34.50;84.10
20366;DHT22;10341;49.894;8.822;2023-06-22T14:32:39;34.70;82.80
20366;DHT22;10341;49.894;8.822;2023-06-22T14:37:58;34.70;81.30
20366;DHT22;10341;49.894;8.822;2023-06-22T14:43:17;35.00;81.70
20366;DHT22;10341;49.894;8.822;2023-06-22T14:48:36;35.20;79.50
20366;DHT22;10341;49.894;8.822;2023-06-22T14:53:55;35.20;78.80
20366;DHT22;10341;49.894;8.822;2023-06-22T14:59:15;35.30;78.40
20366;DHT22;10341;49.894;8.822;2023-06-22T15:04:35;34.90;77.00
20366;DHT22;10341;49.894;8.822;2023-06-22T15:09:54;35.20;79.50
20366;DHT22;10341;49.894;8.822;2023-06-22T15:15:13;35.70;80.50
20366;DHT22;10341;49.894;8.822;2023-06-22T15:20:32;35.00;83.80
20366;DHT22;10341;49.894;8.822;2023-06-22T15:25:52;34.20;84.20
20366;DHT22;10341;49.894;8.822;2023-06-22T15:31:11;33.50;86.00
20366;DHT22;10341;49.894;8.822;2023-06-22T15:36:30;32.90;85.80
20366;DHT22;10341;49.894;8.822;2023-06-22T15:41:49;33.00;85.60
20366;DHT22;10341;49.894;8.822;2023-06-22T15:47:09;33.10;84.00
20366;DHT22;10341;49.894;8.822;2023-06-22T15:52:28;33.10;84.50
20366;DHT22;10341;49.894;8.822;2023-06-22T15:57:47;33.20;83.70
20366;DHT22;10341;49.894;8.822;2023-06-22T16:03:07;33.00;85.70
20366;DHT22;10341;49.894;8.822;2023-06-22T16:08:28;32.60;86.30
20366;DHT22;10341;49.894;8.822;2023-06-22T16:13:50;32.30;89.90
20366;DHT22;10341;49.894;8.822;2023-06-22T16:19:09;32.00;89.70
20366;DHT22;10341;49.894;8.822;2023-06-22T16:24:28;31.50;88.10
20366;DHT22;10341;49.894;8.822;2023-06-22T16:29:48;31.10;89.40
20366;DHT22;10341;49.894;8.822;2023-06-22T16:35:07;31.00;90.30
20366;DHT22;10341;49.894;8.822;2023-06-22T16:40:26;30.80;91.00
20366;DHT22;10341;49.894;8.822;2023-06-22T16:45:45;30.40;92.10
20366;DHT22;10341;49.894;8.822;2023-06-22T16:51:05;30.20;93.00
20366;DHT22;10341;49.894;8.822;2023-06-22T16:56:26;30.00;94.00
20366;DHT22;10341;49.894;8.822;2023-06-22T17:01:54;29.80;93.60
20366;DHT22;10341;49.894;8.822;2023-06-22T17:07:14;29.70;93.80
20366;DHT22;10341;49.894;8.822;2023-06-22T17:12:36;29.60;94.10
20366;DHT22;10341;49.894;8.822;2023-06-22T17:17:57;29.20;94.70
20366;DHT22;10341;49.894;8.822;2023-06-22T17:23:16;29.00;95.30
20366;DHT22;10341;49.894;8.822;2023-06-22T17:28:51;28.70;96.40
20366;DHT22;10341;49.894;8.822;2023-06-22T17:34:13;28.10;98.50
20366;DHT22;10341;49.894;8.822;2023-06-22T17:39:34;27.30;98.90
20366;DHT22;10341;49.894;8.822;2023-06-22T17:45:00;26.60;99.90
20366;DHT22;10341;49.894;8.822;2023-06-22T17:50:23;26.20;99.90
20366;DHT22;10341;49.894;8.822;2023-06-22T17:55:43;26.10;99.90
20366;DHT22;10341;49.894;8.822;2023-06-22T18:01:03;26.10;99.90
20366;DHT22;10341;49.894;8.822;2023-06-22T18:06:25;26.10;99.90
20366;DHT22;10341;49.894;8.822;2023-06-22T18:11:47;26.00;99.90
20366;DHT22;10341;49.894;8.822;2023-06-22T18:17:07;26.00;99.90
20366;DHT22;10341;49.894;8.822;2023-06-22T18:22:28;25.90;99.90
20366;DHT22;10341;49.894;8.822;2023-06-22T18:27:48;26.00;99.90
20366;DHT22;10341;49.894;8.822;2023-06-22T18:33:07;26.10;99.90
20366;DHT22;10341;49.894;8.822;2023-06-22T18:38:27;26.00;99.90
20366;DHT22;10341;49.894;8.822;2023-06-22T18:43:47;26.10;99.90
20366;DHT22;10341;49.894;8.822;2023-06-22T18:49:15;26.10;99.90
20366;DHT22;10341;49.894;8.822;2023-06-22T18:54:43;26.10;99.90
20366;DHT22;10341;49.894;8.822;2023-06-22T19:00:05;26.30;99.90
20366;DHT22;10341;49.894;8.822;2023-06-22T19:05:41;26.20;99.90
20366;DHT22;10341;49.894;8.822;2023-06-22T19:11:11;26.10;99.90
20366;DHT22;10341;49.894;8.822;2023-06-22T19:16:32;25.90;99.90
20366;DHT22;10341;49.894;8.822;2023-06-22T19:21:59;25.90;99.90
20366;DHT22;10341;49.894;8.822;2023-06-22T19:27:21;25.70;99.90
20366;DHT22;10341;49.894;8.822;2023-06-22T19:32:40;25.70;99.90
20366;DHT22;10341;49.894;8.822;2023-06-22T19:38:00;25.60;99.90
20366;DHT22;10341;49.894;8.822;2023-06-22T19:43:19;25.50;99.90
20366;DHT22;10341;49.894;8.822;2023-06-22T19:48:39;25.60;99.90
20366;DHT22;10341;49.894;8.822;2023-06-22T19:54:06;25.70;99.90
20366;DHT22;10341;49.894;8.822;2023-06-22T19:59:26;25.70;99.90
20366;DHT22;10341;49.894;8.822;2023-06-22T20:04:46;25.60;99.90
20366;DHT22;10341;49.894;8.822;2023-06-22T20:10:26;25.50;99.90
20366;DHT22;10341;49.894;8.822;2023-06-22T20:15:48;25.30;99.90
20366;DHT22;10341;49.894;8.822;2023-06-22T20:21:12;25.20;99.90
20366;DHT22;10341;49.894;8.822;2023-06-22T20:26:45;25.00;99.90
20366;DHT22;10341;49.894;8.822;2023-06-22T20:32:12;24.80;99.90
20366;DHT22;10341;49.894;8.822;2023-06-22T20:37:32;24.60;99.90
20366;DHT22;10341;49.894;8.822;2023-06-22T20:42:52;24.40;99.90
20366;DHT22;10341;49.894;8.822;2023-06-22T20:48:13;24.20;99.90
20366;DHT22;10341;49.894;8.822;2023-06-22T20:53:32;23.90;99.90
20366;DHT22;10341;49.894;8.822;2023-06-22T20:58:51;23.60;99.90
20366;DHT22;10341;49.894;8.822;2023-06-22T21:04:10;23.30;99.90
20366;DHT22;10341;49.894;8.822;2023-06-22T21:09:29;23.10;99.90
20366;DHT22;10341;49.894;8.822;2023-06-22T21:14:48;22.90;99.90
20366;DHT22;10341;49.894;8.822;2023-06-22T21:20:08;22.70;99.90
20366;DHT22;10341;49.894;8.822;2023-06-22T21:25:28;22.60;99.90
20366;DHT22;10341;49.894;8.822;2023-06-22T21:30:47;22.40;99.90
20366;DHT22;10341;49.894;8.822;2023-06-22T21:36:07;22.30;99.90
20366;DHT22;10341;49.894;8.822;2023-06-22T21:41:26;22.30;99.90
20366;DHT22;10341;49.894;8.822;2023-06-22T21:46:45;22.30;99.90
20366;DHT22;10341;49.894;8.822;2023-06-22T21:52:05;22.20;99.90
20366;DHT22;10341;49.894;8.822;2023-06-22T21:57:25;22.20;99.90
20366;DHT22;10341;49.894;8.822;2023-06-22T22:02:45;22.20;99.90
20366;DHT22;10341;49.894;8.822;2023-06-22T22:08:05;22.20;99.90
20366;DHT22;10341;49.894;8.822;2023-06-22T22:13:24;22.20;99.90
20366;DHT22;10341;49.894;8.822;2023-06-22T22:18:45;22.10;99.90
20366;DHT22;10341;49.894;8.822;2023-06-22T22:24:05;22.10;99.90
20366;DHT22;10341;49.894;8.822;2023-06-22T22:29:25;22.10;99.90
20366;DHT22;10341;49.894;8.822;2023-06-22T22:34:47;22.00;99.90
20366;DHT22;10341;49.894;8.822;2023-06-22T22:40:07;21.90;99.90
20366;DHT22;10341;49.894;8.822;2023-06-22T22:45:29;21.90;99.90
20366;DHT22;10341;49.894;8.822;2023-06-22T22:50:48;21.70;99.90
20366;DHT22;10341;49.894;8.822;2023-06-22T22:56:08;21.80;99.90
20366;DHT22;10341;49.894;8.822;2023-06-22T23:01:27;21.70;99.90
20366;DHT22;10341;49.894;8.822;2023-06-22T23:06:46;21.60;99.90
20366;DHT22;10341;49.894;8.822;2023-06-22T23:12:05;21.40;99.90
20366;DHT22;10341;49.894;8.822;2023-06-22T23:17:24;21.30;99.90
20366;DHT22;10341;49.894;8.822;2023-06-22T23:22:43;21.20;99.90
20366;DHT22;10341;49.894;8.822;2023-06-22T23:28:03;21.10;99.90
20366;DHT22;10341;49.894;8.822;2023-06-22T23:33:22;20.90;99.90
20366;DHT22;10341;49.894;8.822;2023-06-22T23:38:44;20.70;99.90
20366;DHT22;10341;49.894;8.822;2023-06-22T23:44:03;20.50;99.90
20366;DHT22;10341;49.894;8.822;2023-06-22T23:49:23;20.30;99.90
20366;DHT22;10341;49.894;8.822;2023-06-22T23:54:42;20.20;99.90
